sensor_id;sensor_type;location;lat;lon;timestamp;temperature;humidity
14411;DHT22;7290;50.854;4.354;2023-02-26T00:00:46;4.90;99.90
14411;DHT22;7290;50.854;4.354;2023-02-26T00:03:12;4.80;99.90
14411;DHT22;7290;50.854;4.354;2023-02-26T00:05:38;4.80;99.90
14411;DHT22;7290;50.854;4.354;2023-02-26T00:08:05;4.80;99.90
14411;DHT22;7290;50.854;4.354;2023-02-26T00:10:31;4.80;99.90
14411;DHT22;7290;50.854;4.354;2023-02-26T00:12:58;4.80;99.90
14411;DHT22;7290;50.854;4.354;2023-02-26T00:15:24;4.80;99.90
14411;DHT22;7290;50.854;4.354;2023-02-26T00:17:56;4.80;99.90
14411;DHT22;7290;50.854;4.354;2023-02-26T00:20:23;4.80;99.90
14411;DHT22;7290;50.854;4.354;2023-02-26T00:22:50;4.90;99.90
14411;DHT22;7290;50.854;4.354;2023-02-26T00:25:17;4.90;99.90
14411;DHT22;7290;50.854;4.354;2023-02-26T00:27:43;4.90;99.90
14411;DHT22;7290;50.854;4.354;2023-02-26T00:30:10;4.90;99.90
14411;DHT22;7290;50.854;4.354;2023-02-26T00:32:37;4.90;99.90
14411;DHT22;7290;50.854;4.354;2023-02-26T00:35:05;4.90;99.90
14411;DHT22;7290;50.854;4.354;2023-02-26T00:37:44;4.80;99.90
14411;DHT22;7290;50.854;4.354;2023-02-26T00:40:19;4.70;99.90
14411;DHT22;7290;50.854;4.354;2023-02-26T00:42:46;4.70;99.90
14411;DHT22;7290;50.854;4.354;2023-02-26T00:45:13;4.70;99.90
14411;DHT22;7290;50.854;4.354;2023-02-26T00:47:44;4.70;99.90
14411;DHT22;7290;50.854;4.354;2023-02-26T00:50:16;4.70;99.90
14411;DHT22;7290;50.854;4.354;2023-02-26T00:52:48;4.60;99.90
14411;DHT22;7290;50.854;4.354;2023-02-26T00:55:16;4.60;99.90
14411;DHT22;7290;50.854;4.354;2023-02-26T00:57:42;4.60;99.90
14411;DHT22;7290;50.854;4.354;2023-02-26T01:00:10;4.60;99.90
14411;DHT22;7290;50.854;4.354;2023-02-26T01:02:37;4.60;99.90
14411;DHT22;7290;50.854;4.354;2023-02-26T01:05:05;4.60;99.90
14411;DHT22;7290;50.854;4.354;2023-02-26T01:07:37;4.50;99.90
14411;DHT22;7290;50.854;4.354;2023-02-26T01:10:06;4.50;99.90
14411;DHT22;7290;50.854;4.354;2023-02-26T01:12:33;4.50;99.90
14411;DHT22;7290;50.854;4.354;2023-02-26T01:15:00;4.40;99.90
14411;DHT22;7290;50.854;4.354;2023-02-26T01:17:28;4.40;99.90
14411;DHT22;7290;50.854;4.354;2023-02-26T01:20:01;4.50;99.90
14411;DHT22;7290;50.854;4.354;2023-02-26T01:22:34;4.60;99.90
14411;DHT22;7290;50.854;4.354;2023-02-26T01:25:04;4.50;99.90
14411;DHT22;7290;50.854;4.354;2023-02-26T01:27:30;4.50;99.90
14411;DHT22;7290;50.854;4.354;2023-02-26T01:29:57;4.40;99.90
14411;DHT22;7290;50.854;4.354;2023-02-26T01:32:27;4.40;99.90
14411;DHT22;7290;50.854;4.354;2023-02-26T01:35:00;4.20;99.90
14411;DHT22;7290;50.854;4.354;2023-02-26T01:37:30;4.30;99.90
14411;DHT22;7290;50.854;4.354;2023-02-26T01:40:22;4.30;99.90
14411;DHT22;7290;50.854;4.354;2023-02-26T01:42:57;4.20;99.90
14411;DHT22;7290;50.854;4.354;2023-02-26T01:45:32;4.10;99.90
14411;DHT22;7290;50.854;4.354;2023-02-26T01:48:03;4.10;99.90
14411;DHT22;7290;50.854;4.354;2023-02-26T01:50:34;4.20;99.90
14411;DHT22;7290;50.854;4.354;2023-02-26T01:53:16;4.20;99.90
14411;DHT22;7290;50.854;4.354;2023-02-26T01:55:43;4.20;99.90
14411;DHT22;7290;50.854;4.354;2023-02-26T01:58:10;4.10;99.90
14411;DHT22;7290;50.854;4.354;2023-02-26T02:00:37;4.10;99.90
14411;DHT22;7290;50.854;4.354;2023-02-26T02:03:04;4.10;99.90
14411;DHT22;7290;50.854;4.354;2023-02-26T02:05:33;4.10;99.90
14411;DHT22;7290;50.854;4.354;2023-02-26T02:08:00;4.10;99.90
14411;DHT22;7290;50.854;4.354;2023-02-26T02:10:27;4.20;99.90
14411;DHT22;7290;50.854;4.354;2023-02-26T02:12:59;4.20;99.90
14411;DHT22;7290;50.854;4.354;2023-02-26T02:15:32;4.00;99.90
14411;DHT22;7290;50.854;4.354;2023-02-26T02:18:11;3.90;99.90
14411;DHT22;7290;50.854;4.354;2023-02-26T02:20:56;3.90;99.90
14411;DHT22;7290;50.854;4.354;2023-02-26T02:23:31;3.90;99.90
14411;DHT22;7290;50.854;4.354;2023-02-26T02:26:13;4.00;99.90
14411;DHT22;7290;50.854;4.354;2023-02-26T02:28:56;3.90;99.90
14411;DHT22;7290;50.854;4.354;2023-02-26T02:31:27;3.90;99.90
14411;DHT22;7290;50.854;4.354;2023-02-26T02:34:01;4.00;99.90
14411;DHT22;7290;50.854;4.354;2023-02-26T02:36:31;3.90;99.90
14411;DHT22;7290;50.854;4.354;2023-02-26T02:39:02;3.80;99.90
14411;DHT22;7290;50.854;4.354;2023-02-26T02:41:33;3.70;99.90
14411;DHT22;7290;50.854;4.354;2023-02-26T02:44:04;3.70;99.90
14411;DHT22;7290;50.854;4.354;2023-02-26T02:46:33;3.70;99.90
14411;DHT22;7290;50.854;4.354;2023-02-26T02:49:02;3.70;99.90
14411;DHT22;7290;50.854;4.354;2023-02-26T02:51:31;3.80;99.90
14411;DHT22;7290;50.854;4.354;2023-02-26T02:54:02;3.80;99.90
14411;DHT22;7290;50.854;4.354;2023-02-26T02:56:34;3.80;99.90
14411;DHT22;7290;50.854;4.354;2023-02-26T02:59:12;3.90;99.90
14411;DHT22;7290;50.854;4.354;2023-02-26T03:01:41;3.90;99.90
14411;DHT22;7290;50.854;4.354;2023-02-26T03:04:10;3.90;99.90
14411;DHT22;7290;50.854;4.354;2023-02-26T03:06:37;4.00;99.90
14411;DHT22;7290;50.854;4.354;2023-02-26T03:09:05;3.80;99.90
14411;DHT22;7290;50.854;4.354;2023-02-26T03:11:32;3.80;99.90
14411;DHT22;7290;50.854;4.354;2023-02-26T03:13:58;3.80;99.90
14411;DHT22;7290;50.854;4.354;2023-02-26T03:16:38;3.80;99.90
14411;DHT22;7290;50.854;4.354;2023-02-26T03:19:17;3.90;99.90
14411;DHT22;7290;50.854;4.354;2023-02-26T03:21:48;3.90;99.90
14411;DHT22;7290;50.854;4.354;2023-02-26T03:24:19;3.90;99.90
14411;DHT22;7290;50.854;4.354;2023-02-26T03:26:53;4.00;99.90
14411;DHT22;7290;50.854;4.354;2023-02-26T03:29:26;3.80;99.90
14411;DHT22;7290;50.854;4.354;2023-02-26T03:32:01;3.70;99.90
14411;DHT22;7290;50.854;4.354;2023-02-26T03:34:33;3.70;99.90
14411;DHT22;7290;50.854;4.354;2023-02-26T03:37:06;3.70;99.90
14411;DHT22;7290;50.854;4.354;2023-02-26T03:39:37;3.60;99.90
14411;DHT22;7290;50.854;4.354;2023-02-26T03:42:08;3.50;99.90
14411;DHT22;7290;50.854;4.354;2023-02-26T03:44:39;3.50;99.90
14411;DHT22;7290;50.854;4.354;2023-02-26T03:47:09;3.40;99.90
14411;DHT22;7290;50.854;4.354;2023-02-26T03:49:40;3.40;99.90
14411;DHT22;7290;50.854;4.354;2023-02-26T03:52:07;3.40;99.90
14411;DHT22;7290;50.854;4.354;2023-02-26T03:54:37;3.30;99.90
14411;DHT22;7290;50.854;4.354;2023-02-26T03:57:04;3.30;99.90
14411;DHT22;7290;50.854;4.354;2023-02-26T03:59:30;3.40;99.90
14411;DHT22;7290;50.854;4.354;2023-02-26T04:02:00;3.40;99.90
14411;DHT22;7290;50.854;4.354;2023-02-26T04:04:30;3.40;99.90
14411;DHT22;7290;50.854;4.354;2023-02-26T04:06:58;3.30;99.90
14411;DHT22;7290;50.854;4.354;2023-02-26T04:09:25;3.30;99.90
14411;DHT22;7290;50.854;4.354;2023-02-26T04:11:52;3.20;99.90
14411;DHT22;7290;50.854;4.354;2023-02-26T04:14:21;3.20;99.90
14411;DHT22;7290;50.854;4.354;2023-02-26T04:16:47;3.20;99.90
14411;DHT22;7290;50.854;4.354;2023-02-26T04:19:13;3.20;99.90
14411;DHT22;7290;50.854;4.354;2023-02-26T04:21:39;3.10;99.90
14411;DHT22;7290;50.854;4.354;2023-02-26T04:24:06;3.10;99.90
14411;DHT22;7290;50.854;4.354;2023-02-26T04:26:32;3.10;99.90
14411;DHT22;7290;50.854;4.354;2023-02-26T04:28:58;3.10;99.90
14411;DHT22;7290;50.854;4.354;2023-02-26T04:31:24;3.20;99.90
14411;DHT22;7290;50.854;4.354;2023-02-26T04:33:50;3.20;99.90
14411;DHT22;7290;50.854;4.354;2023-02-26T04:36:16;3.10;99.90
14411;DHT22;7290;50.854;4.354;2023-02-26T04:38:42;3.10;99.90
14411;DHT22;7290;50.854;4.354;2023-02-26T04:41:09;2.90;99.90
14411;DHT22;7290;50.854;4.354;2023-02-26T04:43:35;2.90;99.90
14411;DHT22;7290;50.854;4.354;2023-02-26T04:46:02;2.80;99.90
14411;DHT22;7290;50.854;4.354;2023-02-26T04:48:28;2.80;99.90
14411;DHT22;7290;50.854;4.354;2023-02-26T04:50:54;2.70;99.90
14411;DHT22;7290;50.854;4.354;2023-02-26T04:53:20;2.70;99.90
14411;DHT22;7290;50.854;4.354;2023-02-26T04:55:47;2.80;99.90
14411;DHT22;7290;50.854;4.354;2023-02-26T04:58:14;2.70;99.90
14411;DHT22;7290;50.854;4.354;2023-02-26T05:00:40;2.70;99.90
14411;DHT22;7290;50.854;4.354;2023-02-26T05:03:06;2.70;99.90
14411;DHT22;7290;50.854;4.354;2023-02-26T05:05:34;2.70;99.90
14411;DHT22;7290;50.854;4.354;2023-02-26T05:08:01;2.70;99.90
14411;DHT22;7290;50.854;4.354;2023-02-26T05:10:27;2.60;99.90
14411;DHT22;7290;50.854;4.354;2023-02-26T05:12:53;2.60;99.90
14411;DHT22;7290;50.854;4.354;2023-02-26T05:15:19;2.70;99.90
14411;DHT22;7290;50.854;4.354;2023-02-26T05:17:46;2.60;99.90
14411;DHT22;7290;50.854;4.354;2023-02-26T05:20:12;2.60;99.90
14411;DHT22;7290;50.854;4.354;2023-02-26T05:22:40;2.60;99.90
14411;DHT22;7290;50.854;4.354;2023-02-26T05:25:08;2.60;99.90
14411;DHT22;7290;50.854;4.354;2023-02-26T05:27:34;2.60;99.90
14411;DHT22;7290;50.854;4.354;2023-02-26T05:30:00;2.50;99.90
14411;DHT22;7290;50.854;4.354;2023-02-26T05:32:27;2.70;99.90
14411;DHT22;7290;50.854;4.354;2023-02-26T05:34:53;2.80;99.90
14411;DHT22;7290;50.854;4.354;2023-02-26T05:37:19;2.80;99.90
14411;DHT22;7290;50.854;4.354;2023-02-26T05:39:46;2.90;99.90
14411;DHT22;7290;50.854;4.354;2023-02-26T05:42:12;2.90;99.90
14411;DHT22;7290;50.854;4.354;2023-02-26T05:44:38;2.90;99.90
14411;DHT22;7290;50.854;4.354;2023-02-26T05:47:04;2.90;99.90
14411;DHT22;7290;50.854;4.354;2023-02-26T05:49:31;2.80;99.90
14411;DHT22;7290;50.854;4.354;2023-02-26T05:51:57;2.60;99.90
14411;DHT22;7290;50.854;4.354;2023-02-26T05:54:23;2.60;99.90
14411;DHT22;7290;50.854;4.354;2023-02-26T05:56:49;2.60;99.90
14411;DHT22;7290;50.854;4.354;2023-02-26T05:59:16;2.60;99.90
14411;DHT22;7290;50.854;4.354;2023-02-26T06:01:42;2.50;99.90
14411;DHT22;7290;50.854;4.354;2023-02-26T06:04:08;2.50;99.90
14411;DHT22;7290;50.854;4.354;2023-02-26T06:06:35;2.50;99.90
14411;DHT22;7290;50.854;4.354;2023-02-26T06:09:01;2.50;99.90
14411;DHT22;7290;50.854;4.354;2023-02-26T06:11:28;2.40;99.90
14411;DHT22;7290;50.854;4.354;2023-02-26T06:13:54;2.20;99.90
14411;DHT22;7290;50.854;4.354;2023-02-26T06:16:21;2.20;99.90
14411;DHT22;7290;50.854;4.354;2023-02-26T06:18:47;2.10;99.90
14411;DHT22;7290;50.854;4.354;2023-02-26T06:21:14;2.10;99.90
14411;DHT22;7290;50.854;4.354;2023-02-26T06:23:41;2.10;99.90
14411;DHT22;7290;50.854;4.354;2023-02-26T06:26:07;2.10;99.90
14411;DHT22;7290;50.854;4.354;2023-02-26T06:28:33;2.00;99.90
14411;DHT22;7290;50.854;4.354;2023-02-26T06:30:59;2.10;99.90
14411;DHT22;7290;50.854;4.354;2023-02-26T06:33:25;2.10;99.90
14411;DHT22;7290;50.854;4.354;2023-02-26T06:35:52;2.00;99.90
14411;DHT22;7290;50.854;4.354;2023-02-26T06:38:18;2.10;99.90
14411;DHT22;7290;50.854;4.354;2023-02-26T06:40:46;2.10;99.90
14411;DHT22;7290;50.854;4.354;2023-02-26T06:43:12;2.10;99.90
14411;DHT22;7290;50.854;4.354;2023-02-26T06:45:47;2.10;99.90
14411;DHT22;7290;50.854;4.354;2023-02-26T06:48:20;2.20;99.90
14411;DHT22;7290;50.854;4.354;2023-02-26T06:50:46;2.20;99.90
14411;DHT22;7290;50.854;4.354;2023-02-26T06:53:18;2.20;99.90
14411;DHT22;7290;50.854;4.354;2023-02-26T06:55:46;2.30;99.90
14411;DHT22;7290;50.854;4.354;2023-02-26T06:58:12;2.10;99.90
14411;DHT22;7290;50.854;4.354;2023-02-26T07:00:39;2.20;99.90
14411;DHT22;7290;50.854;4.354;2023-02-26T07:03:06;2.20;99.90
14411;DHT22;7290;50.854;4.354;2023-02-26T07:05:32;2.20;99.90
14411;DHT22;7290;50.854;4.354;2023-02-26T07:07:58;2.30;99.90
14411;DHT22;7290;50.854;4.354;2023-02-26T07:10:24;2.10;99.90
14411;DHT22;7290;50.854;4.354;2023-02-26T07:12:51;2.10;99.90
14411;DHT22;7290;50.854;4.354;2023-02-26T07:15:17;2.10;99.90
14411;DHT22;7290;50.854;4.354;2023-02-26T07:17:43;2.00;99.90
14411;DHT22;7290;50.854;4.354;2023-02-26T07:20:10;2.00;99.90
14411;DHT22;7290;50.854;4.354;2023-02-26T07:22:38;2.10;99.90
14411;DHT22;7290;50.854;4.354;2023-02-26T07:25:05;2.30;99.90
14411;DHT22;7290;50.854;4.354;2023-02-26T07:27:31;2.40;99.90
14411;DHT22;7290;50.854;4.354;2023-02-26T07:29:59;2.50;99.90
14411;DHT22;7290;50.854;4.354;2023-02-26T07:32:25;2.50;99.90
14411;DHT22;7290;50.854;4.354;2023-02-26T07:34:51;2.70;99.90
14411;DHT22;7290;50.854;4.354;2023-02-26T07:37:17;2.40;99.90
14411;DHT22;7290;50.854;4.354;2023-02-26T07:39:44;2.30;99.90
14411;DHT22;7290;50.854;4.354;2023-02-26T07:42:10;2.30;99.90
14411;DHT22;7290;50.854;4.354;2023-02-26T07:44:36;2.50;99.90
14411;DHT22;7290;50.854;4.354;2023-02-26T07:47:03;2.60;99.90
14411;DHT22;7290;50.854;4.354;2023-02-26T07:49:30;2.60;99.90
14411;DHT22;7290;50.854;4.354;2023-02-26T07:51:56;2.70;99.90
14411;DHT22;7290;50.854;4.354;2023-02-26T07:54:23;2.80;99.90
14411;DHT22;7290;50.854;4.354;2023-02-26T07:56:49;2.70;99.90
14411;DHT22;7290;50.854;4.354;2023-02-26T07:59:15;2.70;99.90
14411;DHT22;7290;50.854;4.354;2023-02-26T08:01:41;2.70;99.90
14411;DHT22;7290;50.854;4.354;2023-02-26T08:04:08;2.60;99.90
14411;DHT22;7290;50.854;4.354;2023-02-26T08:06:34;2.70;99.90
14411;DHT22;7290;50.854;4.354;2023-02-26T08:09:01;2.70;99.90
14411;DHT22;7290;50.854;4.354;2023-02-26T08:11:27;2.80;99.90
14411;DHT22;7290;50.854;4.354;2023-02-26T08:13:53;2.80;99.90
14411;DHT22;7290;50.854;4.354;2023-02-26T08:16:19;2.70;99.90
14411;DHT22;7290;50.854;4.354;2023-02-26T08:18:45;2.80;99.90
14411;DHT22;7290;50.854;4.354;2023-02-26T08:21:12;3.00;99.90
14411;DHT22;7290;50.854;4.354;2023-02-26T08:23:38;3.10;99.90
14411;DHT22;7290;50.854;4.354;2023-02-26T08:26:06;3.20;99.90
14411;DHT22;7290;50.854;4.354;2023-02-26T08:28:33;3.10;99.90
14411;DHT22;7290;50.854;4.354;2023-02-26T08:31:00;3.00;99.90
14411;DHT22;7290;50.854;4.354;2023-02-26T08:33:27;3.00;99.90
14411;DHT22;7290;50.854;4.354;2023-02-26T08:35:53;3.00;99.90
14411;DHT22;7290;50.854;4.354;2023-02-26T08:38:24;3.10;99.90
14411;DHT22;7290;50.854;4.354;2023-02-26T08:40:50;3.10;99.90
14411;DHT22;7290;50.854;4.354;2023-02-26T08:43:17;3.10;99.90
14411;DHT22;7290;50.854;4.354;2023-02-26T08:45:43;3.20;99.90
14411;DHT22;7290;50.854;4.354;2023-02-26T08:48:10;3.10;99.90
14411;DHT22;7290;50.854;4.354;2023-02-26T08:50:36;3.00;99.90
14411;DHT22;7290;50.854;4.354;2023-02-26T08:53:02;3.10;99.90
14411;DHT22;7290;50.854;4.354;2023-02-26T08:55:29;3.20;99.90
14411;DHT22;7290;50.854;4.354;2023-02-26T08:57:55;3.20;99.90
14411;DHT22;7290;50.854;4.354;2023-02-26T09:00:21;3.30;99.90
14411;DHT22;7290;50.854;4.354;2023-02-26T09:02:47;3.40;99.90
14411;DHT22;7290;50.854;4.354;2023-02-26T09:05:14;3.40;99.90
14411;DHT22;7290;50.854;4.354;2023-02-26T09:07:40;3.30;99.90
14411;DHT22;7290;50.854;4.354;2023-02-26T09:10:08;3.50;99.90
14411;DHT22;7290;50.854;4.354;2023-02-26T09:12:37;3.60;99.90
14411;DHT22;7290;50.854;4.354;2023-02-26T09:15:05;2.90;99.90
14411;DHT22;7290;50.854;4.354;2023-02-26T09:17:31;3.00;99.90
14411;DHT22;7290;50.854;4.354;2023-02-26T09:19:57;3.10;99.90
14411;DHT22;7290;50.854;4.354;2023-02-26T09:22:24;3.20;99.90
14411;DHT22;7290;50.854;4.354;2023-02-26T09:24:50;3.30;99.90
14411;DHT22;7290;50.854;4.354;2023-02-26T09:27:16;3.30;99.90
14411;DHT22;7290;50.854;4.354;2023-02-26T09:29:43;3.30;99.90
14411;DHT22;7290;50.854;4.354;2023-02-26T09:32:09;3.40;99.90
14411;DHT22;7290;50.854;4.354;2023-02-26T09:34:35;3.50;99.90
14411;DHT22;7290;50.854;4.354;2023-02-26T09:37:02;3.30;99.90
14411;DHT22;7290;50.854;4.354;2023-02-26T09:39:28;3.30;99.90
14411;DHT22;7290;50.854;4.354;2023-02-26T09:41:58;3.00;99.90
14411;DHT22;7290;50.854;4.354;2023-02-26T09:44:26;3.20;99.90
14411;DHT22;7290;50.854;4.354;2023-02-26T09:46:59;3.50;99.90
14411;DHT22;7290;50.854;4.354;2023-02-26T09:49:45;3.60;99.90
14411;DHT22;7290;50.854;4.354;2023-02-26T09:52:19;3.70;99.90
14411;DHT22;7290;50.854;4.354;2023-02-26T09:54:48;3.80;99.90
14411;DHT22;7290;50.854;4.354;2023-02-26T09:57:24;4.00;99.90
14411;DHT22;7290;50.854;4.354;2023-02-26T09:59:51;4.10;99.90
14411;DHT22;7290;50.854;4.354;2023-02-26T10:02:23;4.20;99.90
14411;DHT22;7290;50.854;4.354;2023-02-26T10:04:55;4.10;99.90
14411;DHT22;7290;50.854;4.354;2023-02-26T10:07:31;4.20;99.90
14411;DHT22;7290;50.854;4.354;2023-02-26T10:10:09;5.10;99.90
14411;DHT22;7290;50.854;4.354;2023-02-26T10:12:40;7.00;99.90
14411;DHT22;7290;50.854;4.354;2023-02-26T10:15:11;7.10;99.90
14411;DHT22;7290;50.854;4.354;2023-02-26T10:17:47;8.50;99.90
14411;DHT22;7290;50.854;4.354;2023-02-26T10:20:19;9.40;99.10
14411;DHT22;7290;50.854;4.354;2023-02-26T10:22:56;10.90;95.80
14411;DHT22;7290;50.854;4.354;2023-02-26T10:25:27;11.80;94.80
14411;DHT22;7290;50.854;4.354;2023-02-26T10:28:00;13.10;91.90
14411;DHT22;7290;50.854;4.354;2023-02-26T10:30:36;12.70;91.30
14411;DHT22;7290;50.854;4.354;2023-02-26T10:33:13;12.40;91.40
14411;DHT22;7290;50.854;4.354;2023-02-26T10:35:48;12.30;91.40
14411;DHT22;7290;50.854;4.354;2023-02-26T10:38:18;12.00;91.20
14411;DHT22;7290;50.854;4.354;2023-02-26T10:40:49;12.60;91.30
14411;DHT22;7290;50.854;4.354;2023-02-26T10:43:19;12.90;90.90
14411;DHT22;7290;50.854;4.354;2023-02-26T10:45:58;13.40;89.60
14411;DHT22;7290;50.854;4.354;2023-02-26T10:48:51;13.20;89.50
14411;DHT22;7290;50.854;4.354;2023-02-26T10:51:24;13.20;90.00
14411;DHT22;7290;50.854;4.354;2023-02-26T10:53:59;12.70;90.20
14411;DHT22;7290;50.854;4.354;2023-02-26T10:56:30;13.80;88.50
14411;DHT22;7290;50.854;4.354;2023-02-26T10:58:56;12.20;87.80
14411;DHT22;7290;50.854;4.354;2023-02-26T11:01:25;12.60;90.10
14411;DHT22;7290;50.854;4.354;2023-02-26T11:03:56;10.20;91.40
14411;DHT22;7290;50.854;4.354;2023-02-26T11:06:27;11.20;91.20
14411;DHT22;7290;50.854;4.354;2023-02-26T11:08:55;11.80;90.20
14411;DHT22;7290;50.854;4.354;2023-02-26T11:11:42;12.00;90.30
14411;DHT22;7290;50.854;4.354;2023-02-26T11:14:11;12.60;89.40
14411;DHT22;7290;50.854;4.354;2023-02-26T11:16:44;13.30;87.20
14411;DHT22;7290;50.854;4.354;2023-02-26T11:19:14;13.00;86.40
14411;DHT22;7290;50.854;4.354;2023-02-26T11:21:43;9.40;90.40
14411;DHT22;7290;50.854;4.354;2023-02-26T11:24:12;8.40;93.10
14411;DHT22;7290;50.854;4.354;2023-02-26T11:26:49;7.40;93.50
14411;DHT22;7290;50.854;4.354;2023-02-26T11:29:18;6.10;95.10
14411;DHT22;7290;50.854;4.354;2023-02-26T11:31:47;6.30;95.40
14411;DHT22;7290;50.854;4.354;2023-02-26T11:34:14;6.60;95.10
14411;DHT22;7290;50.854;4.354;2023-02-26T11:36:43;6.40;95.50
14411;DHT22;7290;50.854;4.354;2023-02-26T11:39:14;6.60;95.80
14411;DHT22;7290;50.854;4.354;2023-02-26T11:41:43;6.20;95.80
14411;DHT22;7290;50.854;4.354;2023-02-26T11:44:13;6.50;95.80
14411;DHT22;7290;50.854;4.354;2023-02-26T11:46:42;7.10;95.60
14411;DHT22;7290;50.854;4.354;2023-02-26T11:49:11;7.60;94.70
14411;DHT22;7290;50.854;4.354;2023-02-26T11:51:41;7.30;94.70
14411;DHT22;7290;50.854;4.354;2023-02-26T11:54:20;7.00;95.50
14411;DHT22;7290;50.854;4.354;2023-02-26T11:56:47;7.20;96.10
14411;DHT22;7290;50.854;4.354;2023-02-26T11:59:16;7.40;95.90
14411;DHT22;7290;50.854;4.354;2023-02-26T12:01:43;7.50;96.00
14411;DHT22;7290;50.854;4.354;2023-02-26T12:04:11;7.20;96.20
14411;DHT22;7290;50.854;4.354;2023-02-26T12:06:38;7.10;96.50
14411;DHT22;7290;50.854;4.354;2023-02-26T12:09:08;6.90;96.90
14411;DHT22;7290;50.854;4.354;2023-02-26T12:11:47;6.90;97.60
14411;DHT22;7290;50.854;4.354;2023-02-26T12:14:27;7.20;97.20
14411;DHT22;7290;50.854;4.354;2023-02-26T12:17:07;8.70;95.50
14411;DHT22;7290;50.854;4.354;2023-02-26T12:19:42;9.10;94.50
14411;DHT22;7290;50.854;4.354;2023-02-26T12:22:22;10.70;93.00
14411;DHT22;7290;50.854;4.354;2023-02-26T12:25:11;12.50;91.00
14411;DHT22;7290;50.854;4.354;2023-02-26T12:27:56;12.60;89.20
14411;DHT22;7290;50.854;4.354;2023-02-26T12:30:44;11.50;90.10
14411;DHT22;7290;50.854;4.354;2023-02-26T12:33:23;11.00;90.70
14411;DHT22;7290;50.854;4.354;2023-02-26T12:35:59;10.50;91.00
14411;DHT22;7290;50.854;4.354;2023-02-26T12:38:33;10.70;91.40
14411;DHT22;7290;50.854;4.354;2023-02-26T12:41:13;10.30;91.00
14411;DHT22;7290;50.854;4.354;2023-02-26T12:43:45;9.50;91.20
14411;DHT22;7290;50.854;4.354;2023-02-26T12:49:22;8.80;92.20
14411;DHT22;7290;50.854;4.354;2023-02-26T12:52:05;9.40;91.90
14411;DHT22;7290;50.854;4.354;2023-02-26T12:54:49;9.10;92.30
14411;DHT22;7290;50.854;4.354;2023-02-26T12:57:46;9.10;92.10
14411;DHT22;7290;50.854;4.354;2023-02-26T13:00:23;8.20;91.80
14411;DHT22;7290;50.854;4.354;2023-02-26T13:03:15;8.10;92.10
14411;DHT22;7290;50.854;4.354;2023-02-26T13:05:59;7.90;92.30
14411;DHT22;7290;50.854;4.354;2023-02-26T13:08:31;7.90;92.30
14411;DHT22;7290;50.854;4.354;2023-02-26T13:11:09;7.60;92.70
14411;DHT22;7290;50.854;4.354;2023-02-26T13:13:52;7.40;93.50
14411;DHT22;7290;50.854;4.354;2023-02-26T13:16:30;7.30;93.80
14411;DHT22;7290;50.854;4.354;2023-02-26T13:19:05;7.40;93.40
14411;DHT22;7290;50.854;4.354;2023-02-26T13:21:35;7.00;93.10
14411;DHT22;7290;50.854;4.354;2023-02-26T13:24:05;6.80;92.60
14411;DHT22;7290;50.854;4.354;2023-02-26T13:26:33;6.90;92.90
14411;DHT22;7290;50.854;4.354;2023-02-26T13:29:02;7.10;92.90
14411;DHT22;7290;50.854;4.354;2023-02-26T13:31:32;7.00;93.10
14411;DHT22;7290;50.854;4.354;2023-02-26T13:34:05;7.00;93.40
14411;DHT22;7290;50.854;4.354;2023-02-26T13:36:31;7.00;93.80
14411;DHT22;7290;50.854;4.354;2023-02-26T13:39:20;6.90;93.90
14411;DHT22;7290;50.854;4.354;2023-02-26T13:41:56;7.00;94.40
14411;DHT22;7290;50.854;4.354;2023-02-26T13:44:30;7.00;93.60
14411;DHT22;7290;50.854;4.354;2023-02-26T13:47:13;6.70;93.70
14411;DHT22;7290;50.854;4.354;2023-02-26T13:49:50;6.50;92.90
14411;DHT22;7290;50.854;4.354;2023-02-26T13:52:24;6.40;92.70
14411;DHT22;7290;50.854;4.354;2023-02-26T13:54:50;6.50;92.80
14411;DHT22;7290;50.854;4.354;2023-02-26T13:57:36;6.60;92.70
14411;DHT22;7290;50.854;4.354;2023-02-26T14:00:21;6.50;92.90
14411;DHT22;7290;50.854;4.354;2023-02-26T14:02:52;6.80;93.00
14411;DHT22;7290;50.854;4.354;2023-02-26T14:08:21;7.00;92.10
14411;DHT22;7290;50.854;4.354;2023-02-26T14:10:56;6.80;91.90
14411;DHT22;7290;50.854;4.354;2023-02-26T14:13:32;6.70;91.80
14411;DHT22;7290;50.854;4.354;2023-02-26T14:16:00;6.80;91.60
14411;DHT22;7290;50.854;4.354;2023-02-26T14:18:30;6.60;91.00
14411;DHT22;7290;50.854;4.354;2023-02-26T14:24:11;6.50;91.10
14411;DHT22;7290;50.854;4.354;2023-02-26T14:26:38;6.70;91.40
14411;DHT22;7290;50.854;4.354;2023-02-26T14:29:15;7.00;91.40
14411;DHT22;7290;50.854;4.354;2023-02-26T14:31:53;6.90;91.30
14411;DHT22;7290;50.854;4.354;2023-02-26T14:34:22;7.10;91.50
14411;DHT22;7290;50.854;4.354;2023-02-26T14:36:51;7.10;91.40
14411;DHT22;7290;50.854;4.354;2023-02-26T14:39:28;7.10;91.70
14411;DHT22;7290;50.854;4.354;2023-02-26T14:42:01;6.70;92.20
14411;DHT22;7290;50.854;4.354;2023-02-26T14:44:30;6.70;92.70
14411;DHT22;7290;50.854;4.354;2023-02-26T14:46:58;6.70;92.50
14411;DHT22;7290;50.854;4.354;2023-02-26T14:49:27;7.00;92.80
14411;DHT22;7290;50.854;4.354;2023-02-26T14:55:02;7.50;91.80
14411;DHT22;7290;50.854;4.354;2023-02-26T14:57:40;7.40;92.00
14411;DHT22;7290;50.854;4.354;2023-02-26T15:00:19;7.40;91.80
14411;DHT22;7290;50.854;4.354;2023-02-26T15:05:57;7.00;91.80
14411;DHT22;7290;50.854;4.354;2023-02-26T15:08:45;6.90;91.80
14411;DHT22;7290;50.854;4.354;2023-02-26T15:11:28;6.60;92.10
14411;DHT22;7290;50.854;4.354;2023-02-26T15:14:22;6.80;92.60
14411;DHT22;7290;50.854;4.354;2023-02-26T15:16:58;7.10;92.50
14411;DHT22;7290;50.854;4.354;2023-02-26T15:19:41;7.30;92.50
14411;DHT22;7290;50.854;4.354;2023-02-26T15:22:21;7.30;92.60
14411;DHT22;7290;50.854;4.354;2023-02-26T15:24:50;7.10;93.00
14411;DHT22;7290;50.854;4.354;2023-02-26T15:27:18;7.20;93.00
14411;DHT22;7290;50.854;4.354;2023-02-26T15:29:46;7.20;93.00
14411;DHT22;7290;50.854;4.354;2023-02-26T15:32:21;7.00;93.20
14411;DHT22;7290;50.854;4.354;2023-02-26T15:34:56;7.00;93.50
14411;DHT22;7290;50.854;4.354;2023-02-26T15:37:27;6.70;94.00
14411;DHT22;7290;50.854;4.354;2023-02-26T15:39:57;7.10;93.90
14411;DHT22;7290;50.854;4.354;2023-02-26T15:42:28;7.40;93.30
14411;DHT22;7290;50.854;4.354;2023-02-26T15:44:56;7.50;93.20
14411;DHT22;7290;50.854;4.354;2023-02-26T15:47:27;7.70;93.20
14411;DHT22;7290;50.854;4.354;2023-02-26T15:49:55;7.80;93.10
14411;DHT22;7290;50.854;4.354;2023-02-26T15:52:25;7.90;92.90
14411;DHT22;7290;50.854;4.354;2023-02-26T15:54:53;8.00;92.90
14411;DHT22;7290;50.854;4.354;2023-02-26T15:57:22;7.90;92.80
14411;DHT22;7290;50.854;4.354;2023-02-26T15:59:50;7.80;93.10
14411;DHT22;7290;50.854;4.354;2023-02-26T16:02:20;7.70;93.20
14411;DHT22;7290;50.854;4.354;2023-02-26T16:04:47;7.90;93.20
14411;DHT22;7290;50.854;4.354;2023-02-26T16:07:13;7.90;93.10
14411;DHT22;7290;50.854;4.354;2023-02-26T16:09:45;7.50;93.30
14411;DHT22;7290;50.854;4.354;2023-02-26T16:12:14;7.20;93.70
14411;DHT22;7290;50.854;4.354;2023-02-26T16:14:44;7.30;93.90
14411;DHT22;7290;50.854;4.354;2023-02-26T16:17:14;7.30;94.00
14411;DHT22;7290;50.854;4.354;2023-02-26T16:19:44;7.20;94.10
14411;DHT22;7290;50.854;4.354;2023-02-26T16:22:18;7.10;94.30
14411;DHT22;7290;50.854;4.354;2023-02-26T16:24:51;7.10;94.40
14411;DHT22;7290;50.854;4.354;2023-02-26T16:27:17;7.30;94.60
14411;DHT22;7290;50.854;4.354;2023-02-26T16:29:49;7.40;94.40
14411;DHT22;7290;50.854;4.354;2023-02-26T16:32:16;7.40;94.40
14411;DHT22;7290;50.854;4.354;2023-02-26T16:34:48;7.40;94.50